Fjordprinsessen — LJVE — position and weather

sailwx.info

Track history (hours):
 
Tides and Currents Weather Stations Pressure Air Temp Water Temp Dewpoint Dewpoint Depression Visibility Wind Speed Wind Dir Waves Ship Positions

Fjordprinsessen

Last reported at 2014-Nov-20 22:33 UTC. Time now 2014-Nov-20 23:01 UTC.
Position N 69°39' E 018°57'.

Length 30 m; draft 2.9 m.

Type: High speed craft. MMSI: 259604000.

Date/timePositionNaut miles runAvg speedWind from/ knotsBaromVisibWave heightAir tempDewpointWater temp
2014-Nov-20 22:33N 69°39' E 018°57'0 0.0
2014-Nov-20 21:33N 69°39' E 018°57'0 0.0
2014-Nov-20 20:33N 69°39' E 018°57'0 0.0
2014-Nov-20 19:33N 69°39' E 018°57'6 1.3
2014-Nov-20 15:14N 69°44' E 019°05'6 6.2
2014-Nov-20 14:19N 69°39' E 018°57'0 0.0
2014-Nov-20 13:31N 69°39' E 018°57'0 0.0
2014-Nov-20 12:31N 69°39' E 018°57'0 0.0
2014-Nov-20 11:25N 69°39' E 018°57'0 0.0
2014-Nov-20 10:33N 69°39' E 018°57'0 0.0
2014-Nov-20 09:33N 69°39' E 018°57'0 0.0
2014-Nov-19 18:34N 69°39' E 018°59'0 0.4
2014-Nov-19 17:33N 69°39' E 018°57'5 2.2
2014-Nov-19 15:14N 69°35' E 018°50'5 7.5
2014-Nov-19 14:33N 69°39' E 018°57'0 0.0
2014-Nov-19 13:33N 69°39' E 018°57'0 0.0
2014-Nov-19 12:33N 69°39' E 018°57'0 0.0
2014-Nov-19 11:33N 69°39' E 018°57'2 2.2
2014-Nov-19 10:33N 69°41' E 018°60'0 0.0
2014-Nov-19 09:33N 69°41' E 018°60'0 0.0
2014-Nov-19 08:33N 69°41' E 018°60'7 3.0
2014-Nov-19 06:21N 69°35' E 018°50'4 5.0
2014-Nov-19 05:30N 69°39' E 018°57'0 0.0
2014-Nov-19 04:33N 69°39' E 018°57'0 0.0
2014-Nov-19 03:33N 69°39' E 018°57'0 0.0
2014-Nov-19 02:27N 69°39' E 018°57'0 0.0
2014-Nov-19 01:32N 69°39' E 018°57'0 0.0
2014-Nov-19 00:32N 69°39' E 018°57'0 0.0
2014-Nov-18 23:32N 69°39' E 018°57'0 0.0
2014-Nov-18 22:32N 69°39' E 018°57'0 0.0
2014-Nov-18 21:32N 69°39' E 018°57'0 0.0
2014-Nov-18 20:32N 69°39' E 018°57'0 0.0
2014-Nov-18 19:32N 69°39' E 018°57'6 1.5
2014-Nov-18 15:15N 69°44' E 019°06'6 7.3
2014-Nov-18 14:23N 69°39' E 018°57'0 0.0
2014-Nov-18 13:32N 69°39' E 018°57'0 0.0
2014-Nov-18 12:17N 69°39' E 018°57'0 0.0
2014-Nov-18 11:32N 69°39' E 018°57'0 0.0
2014-Nov-18 10:28N 69°39' E 018°57'0 0.0
2014-Nov-18 09:31N 69°39' E 018°57'6 0.4
2014-Nov-17 18:33N 69°44' E 019°05'6 5.6
2014-Nov-17 17:33N 69°39' E 018°57'4 1.5
2014-Nov-17 15:09N 69°36' E 018°52'4 5.9
2014-Nov-17 14:33N 69°39' E 018°57'0 0.0
2014-Nov-17 13:30N 69°39' E 018°57'0 0.0
2014-Nov-17 12:33N 69°39' E 018°57'0 0.0
2014-Nov-17 11:33N 69°39' E 018°57'0 0.0
2014-Nov-17 10:33N 69°39' E 018°57'0 0.0
2014-Nov-17 09:33N 69°39' E 018°57'0 0.0
2014-Nov-17 08:27N 69°39' E 018°57'4 2.0
2014-Nov-17 06:19N 69°35' E 018°51'4 4.3
2014-Nov-17 05:22N 69°39' E 018°57'0 0.0
2014-Nov-17 04:31N 69°39' E 018°57'0 0.0
2014-Nov-17 03:28N 69°39' E 018°57'0 0.0
2014-Nov-17 02:31N 69°39' E 018°57'0 0.0
2014-Nov-17 01:31N 69°39' E 018°57'0 0.0
2014-Nov-17 00:28N 69°39' E 018°57'0 0.0
2014-Nov-16 23:31N 69°39' E 018°57'0 0.0
2014-Nov-16 22:31N 69°39' E 018°57'0 0.0
2014-Nov-16 21:34N 69°39' E 018°57'5 2.2
2014-Nov-16 19:30N 69°35' E 018°50'5 0.8
2014-Nov-16 13:32N 69°39' E 018°57'0 0.0
2014-Nov-16 12:32N 69°39' E 018°57'0 0.0
2014-Nov-16 11:32N 69°39' E 018°57'0 0.0
2014-Nov-16 10:32N 69°39' E 018°57'0 0.0
2014-Nov-16 09:32N 69°39' E 018°57'0 0.0
2014-Nov-16 08:32N 69°39' E 018°57'0 0.0
2014-Nov-16 07:26N 69°39' E 018°57'0 0.0
2014-Nov-16 06:28N 69°39' E 018°57'0 0.0
2014-Nov-16 05:28N 69°39' E 018°57'0 0.0
2014-Nov-16 04:31N 69°39' E 018°57'0 0.0
2014-Nov-16 03:31N 69°39' E 018°57'0 0.0
2014-Nov-16 02:28N 69°39' E 018°57'0 0.0
2014-Nov-16 01:31N 69°39' E 018°57'0 0.0
2014-Nov-16 00:31N 69°39' E 018°57'0 0.0
2014-Nov-15 23:25N 69°39' E 018°57'0 0.0
2014-Nov-15 22:31N 69°39' E 018°57'0 0.0
2014-Nov-15 21:31N 69°39' E 018°57'0 0.0
2014-Nov-15 20:31N 69°39' E 018°57'0 0.0
2014-Nov-15 19:31N 69°39' E 018°57'0 0.0
2014-Nov-15 18:31N 69°39' E 018°57'0 0.0
2014-Nov-15 17:31N 69°39' E 018°57'0 0.0
2014-Nov-15 16:31N 69°39' E 018°57'0 0.0
2014-Nov-15 15:33N 69°39' E 018°57'0 0.0
2014-Nov-15 14:33N 69°39' E 018°57'0 0.0
2014-Nov-15 13:33N 69°39' E 018°57'0 0.0
2014-Nov-15 12:30N 69°39' E 018°57'0 0.0
2014-Nov-15 11:33N 69°39' E 018°57'0 0.0
2014-Nov-15 10:33N 69°39' E 018°57'0 0.0
2014-Nov-15 09:33N 69°39' E 018°57'0 0.0
2014-Nov-15 08:33N 69°39' E 018°57'0 0.0
2014-Nov-15 07:33N 69°39' E 018°57'0 0.0
2014-Nov-15 06:33N 69°39' E 018°57'0 0.0
2014-Nov-15 05:33N 69°39' E 018°57'0 0.0
2014-Nov-15 04:33N 69°39' E 018°57'0 0.0
2014-Nov-15 03:26N 69°39' E 018°57'0 0.0
2014-Nov-15 02:32N 69°39' E 018°57'0 0.0
2014-Nov-15 01:29N 69°39' E 018°57'0 0.0
2014-Nov-15 00:32N 69°39' E 018°57'0 0.0
2014-Nov-14 23:32N 69°39' E 018°57'0 0.0
2014-Nov-14 22:32N 69°39' E 018°57'3 0.7
2014-Nov-14 17:23N 69°42' E 019°03'6 2.7
2014-Nov-14 15:07N 69°37' E 018°54'3 4.3
2014-Nov-14 14:30N 69°39' E 018°57'0 0.0
2014-Nov-14 12:33N 69°39' E 018°57'0 0.0
2014-Nov-14 11:30N 69°39' E 018°57'0 0.0
2014-Nov-14 10:33N 69°39' E 018°57'0 0.0
2014-Nov-14 09:30N 69°39' E 018°57'0 0.0
2014-Nov-14 08:33N 69°39' E 018°57'5 2.2
2014-Nov-14 06:21N 69°35' E 018°49'5 5.9
2014-Nov-14 05:31N 69°39' E 018°57'0 0.0
2014-Nov-14 04:31N 69°39' E 018°57'0 0.0
2014-Nov-14 03:31N 69°39' E 018°57'0 0.0
2014-Nov-14 02:31N 69°39' E 018°57'0 0.0
2014-Nov-14 01:31N 69°39' E 018°57'0 0.0
2014-Nov-14 00:31N 69°39' E 018°57'0 0.0
2014-Nov-13 23:31N 69°39' E 018°57'0 0.0
2014-Nov-13 22:31N 69°39' E 018°57'0 0.0
2014-Nov-13 21:31N 69°39' E 018°57'0 0.0
2014-Nov-13 20:31N 69°39' E 018°57'0 0.0
2014-Nov-13 19:28N 69°39' E 018°57'5 1.2
2014-Nov-13 15:12N 69°43' E 019°04'5 7.7
2014-Nov-13 14:33N 69°39' E 018°57'0 0.0
2014-Nov-13 13:32N 69°39' E 018°57'0 0.0
2014-Nov-13 12:32N 69°39' E 018°57'0 0.0
2014-Nov-13 11:32N 69°39' E 018°57'0 0.0
2014-Nov-13 10:26N 69°39' E 018°57'0 0.0
2014-Nov-13 09:26N 69°39' E 018°57'4 0.3
2014-Nov-12 18:34N 69°43' E 019°04'4 4.3
2014-Nov-12 17:31N 69°39' E 018°57'5 2.0
2014-Nov-12 15:11N 69°35' E 018°50'5 7.3
2014-Nov-12 14:32N 69°39' E 018°57'0 0.0
2014-Nov-12 13:32N 69°39' E 018°57'0 0.0
2014-Nov-12 12:32N 69°39' E 018°57'0 0.0
2014-Nov-12 11:29N 69°39' E 018°57'0 0.0
2014-Nov-12 10:29N 69°39' E 018°57'0 0.0
2014-Nov-12 09:32N 69°39' E 018°57'0 0.0
2014-Nov-12 08:32N 69°39' E 018°57'5 2.1
2014-Nov-12 06:20N 69°35' E 018°50'5 5.6
2014-Nov-12 05:32N 69°39' E 018°57'0 0.0
2014-Nov-12 04:32N 69°39' E 018°57'0 0.0
2014-Nov-12 03:28N 69°39' E 018°57'0 0.0
2014-Nov-12 02:31N 69°39' E 018°57'0 0.0
2014-Nov-12 01:28N 69°39' E 018°57'0 0.0
2014-Nov-12 00:28N 69°39' E 018°57'0 0.0
2014-Nov-11 23:28N 69°39' E 018°57'0 0.0
2014-Nov-11 22:31N 69°39' E 018°57'0 0.0
2014-Nov-11 21:31N 69°39' E 018°57'0 0.0
2014-Nov-11 20:31N 69°39' E 018°57'0 0.0
2014-Nov-11 19:28N 69°39' E 018°57'6 1.5
2014-Nov-11 15:16N 69°44' E 019°06'6 8.9
2014-Nov-11 14:33N 69°39' E 018°57'0 0.0
2014-Nov-11 13:21N 69°39' E 018°57'0 0.0
2014-Nov-11 12:33N 69°39' E 018°57'0 0.0
2014-Nov-11 11:30N 69°39' E 018°57'0 0.0
2014-Nov-11 10:33N 69°39' E 018°57'0 0.0
2014-Nov-11 09:30N 69°39' E 018°57'  
Track history (hours):
 
Tides and Currents Weather Stations Pressure Air Temp Water Temp Dewpoint Dewpoint Depression Visibility Wind Speed Wind Dir Waves Ship Positions

Fjordprinsessen

Last reported at 2014-Nov-20 22:33 UTC. Time now 2014-Nov-20 23:01 UTC.
Position N 69°39' E 018°57'.

Length 30 m; draft 2.9 m.

Type: High speed craft. MMSI: 259604000.

Date/timePositionNaut miles runAvg speedWind from/ knotsBaromVisibWave heightAir tempDewpointWater temp
2014-Nov-20 22:33N 69°39' E 018°57'0 0.0
2014-Nov-20 21:33N 69°39' E 018°57'0 0.0
2014-Nov-20 20:33N 69°39' E 018°57'0 0.0
2014-Nov-20 19:33N 69°39' E 018°57'6 1.3
2014-Nov-20 15:14N 69°44' E 019°05'6 6.2
2014-Nov-20 14:19N 69°39' E 018°57'0 0.0
2014-Nov-20 13:31N 69°39' E 018°57'0 0.0
2014-Nov-20 12:31N 69°39' E 018°57'0 0.0
2014-Nov-20 11:25N 69°39' E 018°57'0 0.0
2014-Nov-20 10:33N 69°39' E 018°57'0 0.0
2014-Nov-20 09:33N 69°39' E 018°57'0 0.0
2014-Nov-19 18:34N 69°39' E 018°59'0 0.4
2014-Nov-19 17:33N 69°39' E 018°57'5 2.2
2014-Nov-19 15:14N 69°35' E 018°50'5 7.5
2014-Nov-19 14:33N 69°39' E 018°57'0 0.0
2014-Nov-19 13:33N 69°39' E 018°57'0 0.0
2014-Nov-19 12:33N 69°39' E 018°57'0 0.0
2014-Nov-19 11:33N 69°39' E 018°57'2 2.2
2014-Nov-19 10:33N 69°41' E 018°60'0 0.0
2014-Nov-19 09:33N 69°41' E 018°60'0 0.0
2014-Nov-19 08:33N 69°41' E 018°60'7 3.0
2014-Nov-19 06:21N 69°35' E 018°50'4 5.0
2014-Nov-19 05:30N 69°39' E 018°57'0 0.0
2014-Nov-19 04:33N 69°39' E 018°57'0 0.0
2014-Nov-19 03:33N 69°39' E 018°57'0 0.0
2014-Nov-19 02:27N 69°39' E 018°57'0 0.0
2014-Nov-19 01:32N 69°39' E 018°57'0 0.0
2014-Nov-19 00:32N 69°39' E 018°57'0 0.0
2014-Nov-18 23:32N 69°39' E 018°57'0 0.0
2014-Nov-18 22:32N 69°39' E 018°57'0 0.0
2014-Nov-18 21:32N 69°39' E 018°57'0 0.0
2014-Nov-18 20:32N 69°39' E 018°57'0 0.0
2014-Nov-18 19:32N 69°39' E 018°57'6 1.5
2014-Nov-18 15:15N 69°44' E 019°06'6 7.3
2014-Nov-18 14:23N 69°39' E 018°57'0 0.0
2014-Nov-18 13:32N 69°39' E 018°57'0 0.0
2014-Nov-18 12:17N 69°39' E 018°57'0 0.0
2014-Nov-18 11:32N 69°39' E 018°57'0 0.0
2014-Nov-18 10:28N 69°39' E 018°57'0 0.0
2014-Nov-18 09:31N 69°39' E 018°57'6 0.4
2014-Nov-17 18:33N 69°44' E 019°05'6 5.6
2014-Nov-17 17:33N 69°39' E 018°57'4 1.5
2014-Nov-17 15:09N 69°36' E 018°52'4 5.9
2014-Nov-17 14:33N 69°39' E 018°57'0 0.0
2014-Nov-17 13:30N 69°39' E 018°57'0 0.0
2014-Nov-17 12:33N 69°39' E 018°57'0 0.0
2014-Nov-17 11:33N 69°39' E 018°57'0 0.0
2014-Nov-17 10:33N 69°39' E 018°57'0 0.0
2014-Nov-17 09:33N 69°39' E 018°57'0 0.0
2014-Nov-17 08:27N 69°39' E 018°57'4 2.0
2014-Nov-17 06:19N 69°35' E 018°51'4 4.3
2014-Nov-17 05:22N 69°39' E 018°57'0 0.0
2014-Nov-17 04:31N 69°39' E 018°57'0 0.0
2014-Nov-17 03:28N 69°39' E 018°57'0 0.0
2014-Nov-17 02:31N 69°39' E 018°57'0 0.0
2014-Nov-17 01:31N 69°39' E 018°57'0 0.0
2014-Nov-17 00:28N 69°39' E 018°57'0 0.0
2014-Nov-16 23:31N 69°39' E 018°57'0 0.0
2014-Nov-16 22:31N 69°39' E 018°57'0 0.0
2014-Nov-16 21:34N 69°39' E 018°57'5 2.2
2014-Nov-16 19:30N 69°35' E 018°50'5 0.8
2014-Nov-16 13:32N 69°39' E 018°57'0 0.0
2014-Nov-16 12:32N 69°39' E 018°57'0 0.0
2014-Nov-16 11:32N 69°39' E 018°57'0 0.0
2014-Nov-16 10:32N 69°39' E 018°57'0 0.0
2014-Nov-16 09:32N 69°39' E 018°57'0 0.0
2014-Nov-16 08:32N 69°39' E 018°57'0 0.0
2014-Nov-16 07:26N 69°39' E 018°57'0 0.0
2014-Nov-16 06:28N 69°39' E 018°57'0 0.0
2014-Nov-16 05:28N 69°39' E 018°57'0 0.0
2014-Nov-16 04:31N 69°39' E 018°57'0 0.0
2014-Nov-16 03:31N 69°39' E 018°57'0 0.0
2014-Nov-16 02:28N 69°39' E 018°57'0 0.0
2014-Nov-16 01:31N 69°39' E 018°57'0 0.0
2014-Nov-16 00:31N 69°39' E 018°57'0 0.0
2014-Nov-15 23:25N 69°39' E 018°57'0 0.0
2014-Nov-15 22:31N 69°39' E 018°57'0 0.0
2014-Nov-15 21:31N 69°39' E 018°57'0 0.0
2014-Nov-15 20:31N 69°39' E 018°57'0 0.0
2014-Nov-15 19:31N 69°39' E 018°57'0 0.0
2014-Nov-15 18:31N 69°39' E 018°57'0 0.0
2014-Nov-15 17:31N 69°39' E 018°57'0 0.0
2014-Nov-15 16:31N 69°39' E 018°57'0 0.0
2014-Nov-15 15:33N 69°39' E 018°57'0 0.0
2014-Nov-15 14:33N 69°39' E 018°57'0 0.0
2014-Nov-15 13:33N 69°39' E 018°57'0 0.0
2014-Nov-15 12:30N 69°39' E 018°57'0 0.0
2014-Nov-15 11:33N 69°39' E 018°57'0 0.0
2014-Nov-15 10:33N 69°39' E 018°57'0 0.0
2014-Nov-15 09:33N 69°39' E 018°57'0 0.0
2014-Nov-15 08:33N 69°39' E 018°57'0 0.0
2014-Nov-15 07:33N 69°39' E 018°57'0 0.0
2014-Nov-15 06:33N 69°39' E 018°57'0 0.0
2014-Nov-15 05:33N 69°39' E 018°57'0 0.0
2014-Nov-15 04:33N 69°39' E 018°57'0 0.0
2014-Nov-15 03:26N 69°39' E 018°57'0 0.0
2014-Nov-15 02:32N 69°39' E 018°57'0 0.0
2014-Nov-15 01:29N 69°39' E 018°57'0 0.0
2014-Nov-15 00:32N 69°39' E 018°57'0 0.0
2014-Nov-14 23:32N 69°39' E 018°57'0 0.0
2014-Nov-14 22:32N 69°39' E 018°57'3 0.7
2014-Nov-14 17:23N 69°42' E 019°03'6 2.7
2014-Nov-14 15:07N 69°37' E 018°54'3 4.3
2014-Nov-14 14:30N 69°39' E 018°57'0 0.0
2014-Nov-14 12:33N 69°39' E 018°57'0 0.0
2014-Nov-14 11:30N 69°39' E 018°57'0 0.0
2014-Nov-14 10:33N 69°39' E 018°57'0 0.0
2014-Nov-14 09:30N 69°39' E 018°57'0 0.0
2014-Nov-14 08:33N 69°39' E 018°57'5 2.2
2014-Nov-14 06:21N 69°35' E 018°49'5 5.9
2014-Nov-14 05:31N 69°39' E 018°57'0 0.0
2014-Nov-14 04:31N 69°39' E 018°57'0 0.0
2014-Nov-14 03:31N 69°39' E 018°57'0 0.0
2014-Nov-14 02:31N 69°39' E 018°57'0 0.0
2014-Nov-14 01:31N 69°39' E 018°57'0 0.0
2014-Nov-14 00:31N 69°39' E 018°57'0 0.0
2014-Nov-13 23:31N 69°39' E 018°57'0 0.0
2014-Nov-13 22:31N 69°39' E 018°57'0 0.0
2014-Nov-13 21:31N 69°39' E 018°57'0 0.0
2014-Nov-13 20:31N 69°39' E 018°57'0 0.0
2014-Nov-13 19:28N 69°39' E 018°57'5 1.2
2014-Nov-13 15:12N 69°43' E 019°04'5 7.7
2014-Nov-13 14:33N 69°39' E 018°57'0 0.0
2014-Nov-13 13:32N 69°39' E 018°57'0 0.0
2014-Nov-13 12:32N 69°39' E 018°57'0 0.0
2014-Nov-13 11:32N 69°39' E 018°57'0 0.0
2014-Nov-13 10:26N 69°39' E 018°57'0 0.0
2014-Nov-13 09:26N 69°39' E 018°57'4 0.3
2014-Nov-12 18:34N 69°43' E 019°04'4 4.3
2014-Nov-12 17:31N 69°39' E 018°57'5 2.0
2014-Nov-12 15:11N 69°35' E 018°50'5 7.3
2014-Nov-12 14:32N 69°39' E 018°57'0 0.0
2014-Nov-12 13:32N 69°39' E 018°57'0 0.0
2014-Nov-12 12:32N 69°39' E 018°57'0 0.0
2014-Nov-12 11:29N 69°39' E 018°57'0 0.0
2014-Nov-12 10:29N 69°39' E 018°57'0 0.0
2014-Nov-12 09:32N 69°39' E 018°57'0 0.0
2014-Nov-12 08:32N 69°39' E 018°57'5 2.1
2014-Nov-12 06:20N 69°35' E 018°50'5 5.6
2014-Nov-12 05:32N 69°39' E 018°57'0 0.0
2014-Nov-12 04:32N 69°39' E 018°57'0 0.0
2014-Nov-12 03:28N 69°39' E 018°57'0 0.0
2014-Nov-12 02:31N 69°39' E 018°57'0 0.0
2014-Nov-12 01:28N 69°39' E 018°57'0 0.0
2014-Nov-12 00:28N 69°39' E 018°57'0 0.0
2014-Nov-11 23:28N 69°39' E 018°57'0 0.0
2014-Nov-11 22:31N 69°39' E 018°57'0 0.0
2014-Nov-11 21:31N 69°39' E 018°57'0 0.0
2014-Nov-11 20:31N 69°39' E 018°57'0 0.0
2014-Nov-11 19:28N 69°39' E 018°57'6 1.5
2014-Nov-11 15:16N 69°44' E 019°06'6 8.9
2014-Nov-11 14:33N 69°39' E 018°57'0 0.0
2014-Nov-11 13:21N 69°39' E 018°57'0 0.0
2014-Nov-11 12:33N 69°39' E 018°57'0 0.0
2014-Nov-11 11:30N 69°39' E 018°57'0 0.0
2014-Nov-11 10:33N 69°39' E 018°57'0 0.0
2014-Nov-11 09:30N 69°39' E 018°57'  

Dump ship's entire track history